Flight Track Log - Related Links

Times and Time Zones

All times are in EDT time to prevent confusion due to time zone crossing. See the AAY842 flight status page for this flight to view local times or setup timezone preferences in your user account.

Time Position Orientation Groundspeed Altitude Reporting Facility
EDT Latitude Longitude Course Direction KTS MPH feet Rate Location/Type
Fri 03:47:04 PM 27.9000 -82.6833 180° South 154 177 900  Level Tampa TRACON
Fri 03:48:28 PM 27.8167 -82.6833 178° South 220 253 3,700 2,120 Climbing Tampa TRACON
Fri 03:49:34 PM 27.8500 -82.7333 307° West 282 325 6,200 2,204 Climbing Tampa TRACON
Fri 03:51:44 PM 28.0392 -82.7514 355° North 341 392 10,900 2,053 Climbing Jacksonville Center
Fri 03:52:44 PM 28.1478 -82.7561 358° North 360 414 12,700 2,550 Climbing Jacksonville Center
Fri 03:53:44 PM 28.2583 -82.7606 358° North 385 443 16,000 2,650 Climbing Jacksonville Center
Fri 03:54:44 PM 28.3689 -82.7558 North 385 443 18,000 1,850 Climbing Jacksonville Center
Fri 03:55:44 PM 28.4817 -82.7439 North 390 449 19,700 1,550 Climbing Jacksonville Center
Fri 03:56:44 PM 28.6006 -82.7317 North 406 467 21,100 1,350 Climbing Jacksonville Center
Fri 03:57:44 PM 28.7258 -82.7197 North 425 489 22,400 1,250 Climbing Jacksonville Center
Fri 03:58:44 PM 28.8531 -82.7100 North 444 511 23,600 1,350 Climbing Jacksonville Center
Fri 03:59:44 PM 28.9844 -82.6956 North 456 525 25,100 1,300 Climbing Jacksonville Center
Fri 04:00:44 PM 29.1181 -82.6858 North 466 536 26,200 1,150 Climbing Jacksonville Center
Fri 04:01:44 PM 29.2539 -82.6711 North 472 543 27,400 1,200 Climbing Jacksonville Center
Fri 04:02:44 PM 29.3875 -82.6589 North 477 549 28,600 1,000 Climbing Jacksonville Center
Fri 04:03:44 PM 29.5272 -82.6492 North 483 556 29,400 1,100 Climbing Jacksonville Center
Fri 04:04:44 PM 29.6817 -82.6297 North 494 568 30,800 1,350 Climbing Jacksonville Center
Fri 04:05:44 PM 29.8194 -82.6172 North 499 574 32,100 1,100 Climbing Jacksonville Center
Fri 04:06:44 PM 29.9592 -82.6025 North 499 574 33,000 950 Climbing Jacksonville Center
Fri 04:07:44 PM 30.0867 -82.5972 North 499 574 34,000 1,150 Climbing Jacksonville Center
Fri 04:08:44 PM 30.2222 -82.5825 North 494 568 35,300 1,100 Climbing Jacksonville Center
Fri 04:09:44 PM 30.3622 -82.5700 North 494 568 36,200 750 Climbing Jacksonville Center
Fri 04:10:44 PM 30.5000 -82.5503 North 501 577 36,800 400 Climbing Jacksonville Center
Fri 04:11:44 PM 30.6356 -82.5039 16° North 501 577 37,000 100 Climbing Jacksonville Center
Fri 04:12:44 PM 30.7669 -82.4550 18° North 490 564 37,000  Level Jacksonville Center
Fri 04:13:44 PM 30.9003 -82.4011 19° North 495 570 37,000  Level Jacksonville Center
Fri 04:14:44 PM 31.0317 -82.3469 19° North 500 575 37,000  Level Jacksonville Center
Fri 04:15:44 PM 31.1733 -82.2928 18° North 500 575 37,000  Level Jacksonville Center
Fri 04:16:44 PM 31.3067 -82.2386 19° North 500 575 37,000  Level Jacksonville Center
Fri 04:17:44 PM 31.4400 -82.1864 18° North 500 575 37,000  Level Jacksonville Center
Fri 04:18:44 PM 31.5714 -82.1342 19° North 500 575 37,000 50 Level Jacksonville Center
Fri 04:19:44 PM 31.6881 -82.0844 20° North 491 565 37,100 50 Climbing Jacksonville Center
Fri 04:20:44 PM 31.8336 -82.0269 19° North 498 573 37,100  Level Jacksonville Center
Fri 04:21:45 PM 31.9669 -81.9742 19° North 503 579 37,100  Level Jacksonville Center
Fri 04:22:44 PM 32.0814 -81.9217 21° North 497 572 37,100 -50 Level Jacksonville Center
Fri 04:23:44 PM 32.2250 -81.8514 22° Northeast 497 572 37,000 -50 Descending Jacksonville Center
Fri 04:24:45 PM 32.3539 -81.7908 22° Northeast 487 560 37,000 50 Level Jacksonville Center
Fri 04:25:44 PM 32.4703 -81.7353 22° Northeast 493 567 37,100  Climbing Jacksonville Center
Fri 04:26:44 PM 32.6117 -81.6669 22° Northeast 493 567 37,000 -50 Descending Jacksonville Center
Fri 04:27:45 PM 32.7403 -81.6058 22° Northeast 493 567 37,000  Level Jacksonville Center
Fri 04:33:58 PM 33.5632 -81.1996 22° Northeast 512 589 37,000 15 Level FlightAware ADS-B (EFHN)
Fri 04:34:38 PM 33.6507 -81.1566 23° Northeast 513 590 37,100 71 Climbing FlightAware ADS-B (EFHN)
Fri 04:35:23 PM 33.7496 -81.1075 23° Northeast 514 592 37,100  Level FlightAware ADS-B (EFHN)
Fri 04:35:54 PM 33.8166 -81.0743 22° Northeast 514 592 37,100  Level FlightAware ADS-B (EFHN)
Fri 04:36:37 PM 33.9117 -81.0275 22° Northeast 513 590 37,100  Level FlightAware ADS-B (EFHN)
Fri 04:37:07 PM 33.9794 -80.9953 22° Northeast 513 590 37,100  Level FlightAware ADS-B (EFHN)
Fri 04:37:38 PM 34.0463 -80.9635 22° Northeast 511 588 37,100 -90 Level FlightAware ADS-B (EFHN)
Fri 04:38:14 PM 34.1261 -80.9252 22° Northeast 512 589 37,000 -81 Descending FlightAware ADS-B (EFHN)
Fri 04:38:52 PM 34.2093 -80.8850 22° Northeast 512 589 37,000  Level FlightAware ADS-B (EFHN)
Fri 04:39:31 PM 34.2956 -80.8432 22° Northeast 513 590 37,000 67 Level FlightAware ADS-B (EFHN)
Fri 04:40:21 PM 34.4069 -80.7893 22° Northeast 513 590 37,100 60 Climbing FlightAware ADS-B (EFHN)
Fri 04:41:11 PM 34.5171 -80.7358 22° Northeast 513 590 37,100  Level FlightAware ADS-B (EFHN)
Fri 04:42:08 PM 34.6423 -80.6748 22° Northeast 513 590 37,100 -67 Level FlightAware ADS-B (EFHN)
Fri 04:42:41 PM 34.7143 -80.6396 22° Northeast 513 590 37,000 -94 Descending FlightAware ADS-B (EFHN)
Fri 04:43:12 PM 34.7828 -80.6062 22° Northeast 514 592 37,000 86 Level FlightAware ADS-B (EFHN)
Fri 04:43:51 PM 34.8685 -80.5641 22° Northeast 513 590 37,100 71 Climbing FlightAware ADS-B (EFHN)
Fri 04:44:37 PM 34.9644 -80.5158 22° Northeast 511 588 37,100 -57 Level Atlanta Center
Fri 04:45:37 PM 35.0922 -80.4544 21° North 506 582 37,000 -50 Descending Atlanta Center
Fri 04:46:37 PM 35.2239 -80.3903 22° Northeast 506 582 37,000  Level Atlanta Center
Fri 04:47:37 PM 35.3553 -80.3233 23° Northeast 511 588 37,000 50 Level Atlanta Center
Fri 04:48:37 PM 35.4869 -80.2589 22° Northeast 506 582 37,100  Climbing Atlanta Center
Fri 04:50:22 PM 35.7042 -80.1475 23° Northeast 494 568 37,000  Descending Washington Center
Fri 04:51:23 PM 35.8339 -80.0808 23° Northeast 499 574 37,100  Climbing Washington Center
Fri 04:52:23 PM 35.9806 -80.0119 21° North 521 600 37,000 -51 Descending Washington Center
Fri 04:53:21 PM 36.1108 -79.9319 26° Northeast 515 593 37,000 50 Level Washington Center
Fri 04:54:22 PM 36.2289 -79.8356 33° Northeast 510 587 37,100 50 Climbing Washington Center
Fri 04:55:22 PM 36.3533 -79.7364 33° Northeast 522 601 37,100 -50 Level Washington Center
Fri 04:56:21 PM 36.4608 -79.6519 32° Northeast 522 601 37,000 -50 Descending Washington Center
Fri 04:57:21 PM 36.5936 -79.5450 33° Northeast 522 601 37,000  Level Washington Center
Fri 04:58:22 PM 36.7158 -79.4475 33° Northeast 517 595 37,000  Level Washington Center
Fri 04:59:22 PM 36.8378 -79.3525 32° Northeast 517 595 37,000 50 Level Washington Center
Fri 05:00:23 PM 36.9489 -79.2617 33° Northeast 517 595 37,100 16 Climbing Washington Center
Fri 05:05:46 PM 37.6264 -78.7127 33° Northeast 523 602 37,100  Level FlightAware ADS-B (KCHO)
Fri 05:06:23 PM 37.7014 -78.6512 33° Northeast 523 602 37,100 -79 Level FlightAware ADS-B (KCHO)
Fri 05:07:02 PM 37.7818 -78.5850 33° Northeast 526 605 37,000 -85 Descending FlightAware ADS-B (KCHO)
Fri 05:07:34 PM 37.8458 -78.5322 33° Northeast 527 606 37,000 85 Level FlightAware ADS-B (KCHO)
Fri 05:08:13 PM 37.9252 -78.4665 33° Northeast 529 609 37,100 86 Climbing FlightAware ADS-B (KCHO)
Fri 05:08:44 PM 37.9857 -78.4163 33° Northeast 529 609 37,100  Level FlightAware ADS-B (KCHO)
Fri 05:09:24 PM 38.0710 -78.3455 33° Northeast 527 606 37,100  Level FlightAware ADS-B (KCHO)
Fri 05:10:04 PM 38.1517 -78.2782 33° Northeast 526 605 37,100 -81 Level FlightAware ADS-B (KCHO)
Fri 05:10:38 PM 38.2230 -78.2187 33° Northeast 526 605 37,000  Descending FlightAware ADS-B (KCHO)
Fri 05:12:42 PM 38.4743 -78.0074 33° Northeast 525 604 37,100 39 Climbing FlightAware ADS-B (KDAA)
Fri 05:13:13 PM 38.5350 -77.9561 33° Northeast 525 604 37,100  Level FlightAware ADS-B (KDAA)
Fri 05:13:42 PM 38.5936 -77.9073 31° Northeast 523 602 37,100 -203 Level FlightAware ADS-B (KDAA)
Fri 05:14:12 PM 38.6591 -77.8622 25° Northeast 515 593 36,900 -689 Descending FlightAware ADS-B (KDAA)
Fri 05:14:43 PM 38.7259 -77.8264 20° North 505 581 36,400 -900 Descending FlightAware ADS-B (KDAA)
Fri 05:15:12 PM 38.7911 -77.7961 20° North 506 582 36,000 -900 Descending FlightAware ADS-B (KDAA)
Fri 05:15:43 PM 38.8576 -77.7647 20° North 510 587 35,500 -1,000 Descending FlightAware ADS-B (KDAA)
Fri 05:16:12 PM 38.9245 -77.7333 20° North 514 592 35,000 -1,017 Descending FlightAware ADS-B (KDAA)
Fri 05:16:42 PM 38.9917 -77.7016 20° North 514 592 34,500 -1,000 Descending FlightAware ADS-B (KDAA)
Fri 05:17:12 PM 39.0592 -77.6698 20° North 510 587 34,000 -1,000 Descending FlightAware ADS-B (KDAA)
Fri 05:17:42 PM 39.1247 -77.6387 20° North 506 582 33,500 -885 Descending FlightAware ADS-B (KDAA)
Fri 05:18:13 PM 39.1885 -77.6086 20° North 500 575 33,100 -282 Descending FlightAware ADS-B (KDAA)
Fri 05:19:07 PM 39.3095 -77.5511 20° North 503 579 33,100  Level FlightAware ADS-B (KDAA)
Fri 05:19:37 PM 39.3622 -77.5260 20° North 504 580 33,100  Level FlightAware ADS-B (KDAA)
Fri 05:20:05 PM 39.4357 -77.4908 20° North 503 579 33,100  Level FlightAware ADS-B (KDAA)
Fri 05:20:27 PM 39.4597 -77.4792 20° North 502 578 33,100 -97 Level FlightAware ADS-B (KDAA)
Fri 05:21:07 PM 39.5723 -77.4251 20° North 501 577 33,000 -97 Descending FlightAware ADS-B (KDAA)
Fri 05:21:29 PM 39.6153 -77.4044 20° North 500 575 33,000  Level FlightAware ADS-B (KDAA)
Fri 05:22:12 PM 39.7110 -77.3581 20° North 500 575 33,000  Level FlightAware ADS-B (KDAA)
Fri 05:22:23 PM 39.7355 -77.3464 20° North 499 574 33,000 47 Level FlightAware ADS-B (LFML / MRS)
Fri 05:24:19 PM 39.9899 -77.2348 14° North 492 566 33,100 -141 Climbing FlightAware ADS-B (KPHL)
Fri 05:25:13 PM 39.8386 -77.2966 21° North 495 570 32,600 -835 Descending FlightAware ADS-B
Fri 05:27:33 PM 40.4196 -77.0865 15° North 481 554 30,400 -961 Descending FlightAware ADS-B
Fri 05:28:14 PM 40.5078 -77.0558 15° North 481 554 29,700 -975 Descending FlightAware ADS-B
Fri 05:28:53 PM 40.5916 -77.0263 15° North 473 544 29,100 -917 Descending FlightAware ADS-B
Fri 05:29:26 PM 40.6400 -77.0093 15° North 470 541 28,600 -1,083 Descending FlightAware ADS-B (KPHL)
Fri 05:30:05 PM 40.7436 -76.9730 15° North 464 534 27,800 -988 Descending FlightAware ADS-B
Fri 05:30:51 PM 40.7782 -76.9608 15° North 453 521 27,200 -894 Descending FlightAware ADS-B
Fri 05:32:26 PM 41.0236 -76.8745 15° North 455 524 25,700 -935 Descending FlightAware ADS-B (KPHL)
Fri 05:33:25 PM 41.1400 -76.8320 15° North 440 506 24,800 -1,010 Descending FlightAware ADS-B
Fri 05:34:07 PM 41.2230 -76.8030 15° North 428 493 24,000 -1,895 Descending FlightAware ADS-B
Fri 05:34:41 PM 41.2840 -76.7810 15° North 411 473 22,400 -2,451 Descending FlightAware ADS-B
Fri 05:35:18 PM 41.3500 -76.7570 15° North 411 473 21,100 -1,050 Descending FlightAware ADS-B
Fri 05:36:01 PM 41.4330 -76.7280 15° North 415 478 21,000 -62 Descending FlightAware ADS-B
Fri 05:36:55 PM 41.5340 -76.6920 15° North 412 474 21,000  Level FlightAware ADS-B
Fri 05:37:26 PM 41.5910 -76.6710 15° North 411 473 21,000  Level FlightAware ADS-B
Fri 05:37:57 PM 41.6460 -76.6510 15° North 412 474 21,000  Level FlightAware ADS-B
Fri 05:38:33 PM 41.7110 -76.6270 15° North 412 474 21,000  Level FlightAware ADS-B
Fri 05:39:15 PM 41.7900 -76.5990 15° North 411 473 21,000 -73 Level FlightAware ADS-B
Fri 05:39:55 PM 41.8560 -76.5740 15° North 407 468 20,900 -621 Descending FlightAware ADS-B
Fri 05:40:42 PM 41.9470 -76.5410 15° North 394 453 20,100 -1,169 Descending FlightAware ADS-B
Fri 05:41:12 PM 42.0000 -76.5220 15° North 395 455 19,400 -1,652 Descending FlightAware ADS-B
Fri 05:43:40 PM 42.2560 -76.4280 15° North 383 441 15,200 -1,667 Descending FlightAware ADS-B
Fri 05:44:30 PM 42.3370 -76.3980 12° North 355 409 13,900 -1,594 Descending FlightAware ADS-B
Fri 05:44:44 PM 42.3610 -76.3960 356° North 336 387 13,500 -1,500 Descending FlightAware ADS-B
Fri 05:44:54 PM 42.3750 -76.4000 349° North 323 372 13,300 -1,672 Descending FlightAware ADS-B
Fri 05:45:45 PM 42.4460 -76.4220 346° North 314 361 11,800 -1,725 Descending FlightAware ADS-B
Fri 05:46:14 PM 42.4850 -76.4360 345° North 308 354 11,000 -1,017 Descending FlightAware ADS-B
Fri 05:46:44 PM 42.5300 -76.4490 358° North 316 364 10,800 -293 Descending FlightAware ADS-B
Fri 05:46:55 PM 42.5450 -76.4460 15° North 324 373 10,800  Level FlightAware ADS-B
Fri 05:47:33 PM 42.6010 -76.4240 16° North 323 372 10,800  Level FlightAware ADS-B
Fri 05:48:09 PM 42.6530 -76.4040 16° North 329 379 10,800 -58 Level FlightAware ADS-B
Fri 05:49:16 PM 42.7300 -76.3300 16° North 344 396 10,700 -857 Descending Boston Center
Fri 05:50:22 PM 42.8061 -76.2333 43° Northeast 306 352 8,900 -1,736 Descending Boston Center
Fri 05:51:17 PM 42.8572 -76.1708 42° Northeast 294 338 7,200 -1,780 Descending Boston Center
Fri 05:52:20 PM 42.9181 -76.1011 40° Northeast 291 335 5,400 -1,296 Descending Boston Center
Fri 05:53:22 PM 42.9731 -76.0367 41° Northeast 269 310 4,500 -919 Descending Boston Center
Fri 05:54:24 PM 43.0233 -75.9817 39° Northeast 249 287 3,500 -976 Descending Boston Center
Fri 05:55:25 PM 43.0900 -75.9750 North 217 250 2,500 -976 Descending Boston Center
Fri 05:56:27 PM 43.1103 -76.0253 299° West 190 219 1,500 -919 Descending Boston Center
Fri 05:57:29 PM 43.1103 -76.0819 270° West 165 190 600 -871 Descending Boston Center

Login

Don't have an account? Register now (free) for customized features, flight alerts, and more!